createdAt,value
2019-06-07T00:00:59.788Z,3.10
2019-06-07T00:03:30.256Z,3.27
2019-06-07T00:05:59.679Z,3.60
2019-06-07T00:08:29.492Z,3.83
2019-06-07T00:10:58.816Z,3.47
2019-06-07T00:13:27.713Z,3.47
2019-06-07T00:15:56.592Z,3.50
2019-06-07T00:18:26.248Z,3.37
2019-06-07T00:20:56.721Z,3.90
2019-06-07T00:23:26.100Z,4.30
2019-06-07T00:25:55.037Z,4.50
2019-06-07T00:28:24.392Z,4.33
2019-06-07T00:30:53.301Z,4.97
2019-06-07T00:33:24.554Z,4.53
2019-06-07T00:35:53.035Z,5.20
2019-06-07T00:38:22.148Z,4.40
2019-06-07T00:40:51.334Z,5.17
2019-06-07T00:43:26.106Z,5.67
2019-06-07T00:45:50.914Z,5.40
2019-06-07T00:48:30.840Z,5.33
2019-06-07T00:50:50.420Z,6.20
2019-06-07T00:53:29.160Z,5.90
2019-06-07T00:55:50.141Z,5.90
2019-06-07T00:58:21.833Z,6.43
2019-06-07T01:00:49.886Z,6.60
2019-06-07T01:03:22.519Z,6.60
2019-06-07T01:05:49.565Z,6.07
2019-06-07T01:08:21.889Z,7.10
2019-06-07T01:10:53.685Z,6.80
2019-06-07T01:13:22.729Z,7.20
2019-06-07T01:15:50.961Z,7.83
2019-06-07T01:18:37.350Z,7.60
2019-06-07T01:20:50.732Z,7.70
2019-06-07T01:24:04.975Z,7.93
2019-06-07T01:25:50.477Z,8.80
2019-06-07T01:28:21.385Z,9.20
2019-06-07T01:30:50.459Z,8.97
2019-06-07T01:33:20.800Z,9.37
2019-06-07T01:35:50.292Z,9.17
2019-06-07T01:38:22.888Z,9.07
2019-06-07T01:40:49.875Z,9.07
2019-06-07T01:43:19.646Z,8.93
2019-06-07T01:45:49.677Z,10.17
2019-06-07T01:48:21.621Z,10.00
2019-06-07T01:50:49.199Z,9.50
2019-06-07T01:53:20.736Z,9.70
2019-06-07T01:55:48.707Z,10.67
2019-06-07T01:58:17.532Z,10.47
2019-06-07T02:00:46.855Z,12.00
2019-06-07T02:03:15.783Z,11.40
2019-06-07T02:05:44.674Z,11.93
2019-06-07T02:08:13.731Z,11.63
2019-06-07T02:10:42.798Z,12.63
2019-06-07T02:13:11.652Z,11.67
2019-06-07T02:15:40.831Z,12.70
2019-06-07T02:18:09.788Z,12.50
2019-06-07T02:20:38.835Z,13.07
2019-06-07T02:23:07.804Z,13.50
2019-06-07T02:25:46.612Z,12.90
2019-06-07T02:28:29.906Z,13.73
2019-06-07T02:30:47.256Z,13.93
2019-06-07T02:33:09.019Z,13.70
2019-06-07T02:35:40.222Z,13.47
2019-06-07T02:38:08.542Z,14.27
2019-06-07T02:40:37.774Z,13.63
2019-06-07T02:43:07.243Z,14.27
2019-06-07T02:45:42.791Z,13.20
2019-06-07T02:48:06.971Z,15.37
2019-06-07T02:50:38.675Z,15.93
2019-06-07T02:53:06.870Z,15.33
2019-06-07T02:56:26.557Z,16.63
2019-06-07T02:58:06.660Z,15.53
2019-06-07T03:01:00.051Z,15.40
2019-06-07T03:03:14.969Z,15.83
2019-06-07T03:05:44.762Z,17.03
2019-06-07T03:08:14.746Z,16.23
2019-06-07T03:10:45.539Z,17.17
2019-06-07T03:13:20.073Z,17.20
2019-06-07T03:15:51.382Z,18.00
2019-06-07T03:18:41.467Z,17.23
2019-06-07T03:21:15.514Z,17.30
2019-06-07T03:23:47.437Z,17.57
2019-06-07T03:26:17.454Z,17.90
2019-06-07T03:28:47.044Z,17.27
2019-06-07T03:31:15.979Z,17.40
2019-06-07T03:33:45.695Z,17.90
2019-06-07T03:36:23.878Z,18.93
2019-06-07T03:38:45.603Z,17.93
2019-06-07T03:41:14.517Z,17.47
2019-06-07T03:43:43.576Z,18.63
2019-06-07T03:46:12.829Z,18.03
2019-06-07T03:48:41.821Z,17.40
2019-06-07T03:51:24.270Z,15.33
2019-06-07T03:53:41.258Z,17.27
2019-06-07T03:56:10.871Z,16.77
2019-06-07T03:58:49.028Z,16.87
2019-06-07T04:01:11.499Z,14.80
2019-06-07T04:03:50.792Z,14.23
2019-06-07T04:06:11.180Z,16.23
2019-06-07T04:08:42.145Z,17.30
2019-06-07T04:11:10.703Z,16.57
2019-06-07T04:13:42.621Z,16.40
2019-06-07T04:16:10.359Z,14.80
2019-06-07T04:18:40.787Z,12.57
2019-06-07T04:21:10.004Z,16.70
2019-06-07T04:23:45.330Z,16.97
2019-06-07T04:26:09.594Z,16.17
2019-06-07T04:29:30.513Z,17.80
2019-06-07T04:31:10.333Z,16.93
2019-06-07T04:33:43.336Z,17.90
2019-06-07T04:36:10.942Z,18.27
2019-06-07T04:38:42.602Z,17.13
2019-06-07T04:41:13.739Z,17.60
2019-06-07T04:43:43.962Z,13.03
2019-06-07T04:46:13.578Z,16.50
2019-06-07T04:48:45.575Z,15.93
2019-06-07T04:51:16.903Z,15.70
2019-06-07T04:53:46.053Z,16.97
2019-06-07T04:56:14.924Z,15.03
2019-06-07T04:58:43.942Z,15.47
2019-06-07T05:01:26.675Z,13.30
2019-06-07T05:03:44.417Z,15.17
2019-06-07T05:06:14.025Z,15.03
2019-06-07T05:08:43.964Z,15.27
2019-06-07T05:11:13.155Z,12.63
2019-06-07T05:13:43.997Z,13.87
2019-06-07T05:16:12.872Z,14.20
2019-06-07T05:18:43.231Z,13.47
2019-06-07T05:21:12.322Z,14.77
2019-06-07T05:24:05.878Z,14.83
2019-06-07T05:26:11.946Z,14.87
2019-06-07T05:28:42.847Z,14.67
2019-06-07T05:31:11.766Z,15.53
2019-06-07T05:33:42.887Z,14.97
2019-06-07T05:36:11.339Z,13.50
2019-06-07T05:38:44.158Z,14.23
2019-06-07T05:41:11.122Z,14.43
2019-06-07T05:43:45.502Z,13.43
2019-06-07T05:46:10.823Z,13.97
2019-06-07T05:48:41.668Z,12.63
2019-06-07T05:51:10.439Z,10.47
2019-06-07T05:53:40.828Z,13.60
2019-06-07T05:56:10.905Z,13.47
2019-06-07T05:58:43.001Z,12.63
2019-06-07T06:01:42.382Z,11.50
2019-06-07T06:03:43.959Z,12.13
2019-06-07T06:06:13.284Z,11.83
2019-06-07T06:08:44.539Z,11.47
2019-06-07T06:11:12.887Z,6.97
2019-06-07T06:14:03.544Z,11.10
2019-06-07T06:16:12.372Z,9.87
2019-06-07T06:18:43.520Z,9.70
2019-06-07T06:21:19.342Z,9.97
2019-06-07T06:23:43.328Z,9.60
2019-06-07T06:26:13.379Z,9.93
2019-06-07T06:28:42.714Z,9.20
2019-06-07T06:31:12.542Z,8.17
2019-06-07T06:33:42.906Z,8.63
2019-06-07T06:36:12.475Z,8.97
2019-06-07T06:38:41.458Z,9.33
2019-06-07T06:41:15.641Z,8.93
2019-06-07T06:43:42.263Z,6.80
2019-06-07T06:46:11.797Z,9.07
2019-06-07T06:48:45.504Z,7.47
2019-06-07T06:51:11.758Z,7.90
2019-06-07T06:53:42.193Z,9.73
2019-06-07T06:56:11.454Z,9.20
2019-06-07T06:59:21.523Z,9.13
2019-06-07T07:01:10.920Z,9.53
2019-06-07T07:04:00.281Z,9.47
2019-06-07T07:06:25.063Z,8.53
2019-06-07T07:08:43.643Z,7.17
2019-06-07T07:11:13.993Z,8.30
2019-06-07T07:13:45.311Z,6.77
2019-06-07T07:16:13.742Z,8.20
2019-06-07T07:18:44.270Z,9.13
2019-06-07T07:21:13.443Z,8.10
2019-06-07T07:24:08.519Z,8.33
2019-06-07T07:26:12.966Z,8.47
2019-06-07T07:28:43.005Z,7.50
2019-06-07T07:31:12.581Z,8.67
2019-06-07T07:34:24.128Z,7.87
2019-06-07T07:36:28.619Z,7.77
2019-06-07T07:38:45.597Z,8.47
2019-06-07T07:41:15.459Z,8.43
2019-06-07T07:43:45.785Z,8.10
2019-06-07T07:46:30.525Z,7.23
2019-06-07T07:48:46.084Z,8.47
2019-06-07T07:51:15.227Z,7.97
2019-06-07T07:53:54.610Z,7.83
2019-06-07T07:56:16.213Z,8.33
2019-06-07T07:58:48.696Z,7.00
2019-06-07T08:01:16.311Z,7.60
2019-06-07T08:03:45.934Z,8.13
2019-06-07T08:06:15.365Z,6.03
2019-06-07T08:08:44.504Z,8.00
2019-06-07T08:11:13.475Z,7.83
2019-06-07T08:13:42.559Z,7.57
2019-06-07T08:16:16.056Z,5.53
2019-06-07T08:18:42.352Z,6.37
2019-06-07T08:21:24.873Z,7.53
2019-06-07T08:23:42.183Z,6.93
2019-06-07T08:26:11.319Z,6.20
2019-06-07T08:28:40.395Z,6.93
2019-06-07T08:31:09.305Z,6.70
2019-06-07T08:33:38.274Z,7.43
2019-06-07T08:36:21.883Z,7.03
2019-06-07T08:38:47.683Z,7.13
2019-06-07T08:41:11.962Z,7.53
2019-06-07T08:43:39.298Z,7.27
2019-06-07T08:46:08.299Z,6.90
2019-06-07T08:48:37.321Z,5.80
2019-06-07T08:51:08.586Z,6.43
2019-06-07T08:53:37.157Z,5.83
2019-06-07T08:56:10.520Z,5.93
2019-06-07T08:58:36.920Z,6.53
2019-06-07T09:01:08.709Z,6.70
2019-06-07T09:03:36.809Z,5.23
2019-06-07T09:06:16.478Z,5.47
2019-06-07T09:08:36.759Z,5.67
2019-06-07T09:11:10.905Z,6.40
2019-06-07T09:13:36.454Z,5.27
2019-06-07T09:16:08.640Z,7.00
2019-06-07T09:18:43.158Z,5.73
2019-06-07T09:21:09.446Z,5.90
2019-06-07T09:23:37.684Z,5.77
2019-06-07T09:26:17.631Z,4.67
2019-06-07T09:28:37.462Z,6.33
2019-06-07T09:31:09.885Z,6.30
2019-06-07T09:33:37.241Z,5.40
2019-06-07T09:36:10.199Z,5.97
2019-06-07T09:38:36.954Z,4.90
2019-06-07T09:41:07.572Z,5.80
2019-06-07T09:46:12.872Z,6.03
2019-06-07T09:51:19.199Z,6.23
2019-06-07T09:53:39.524Z,7.90
2019-06-07T09:56:11.850Z,5.97
2019-06-07T09:58:54.750Z,7.00
2019-06-07T10:01:13.508Z,7.67
2019-06-07T10:03:40.877Z,7.17
2019-06-07T10:06:13.536Z,5.67
2019-06-07T10:11:15.476Z,6.97
2019-06-07T10:13:44.465Z,6.03
2019-06-07T10:16:13.522Z,5.40
2019-06-07T10:18:42.440Z,7.17
2019-06-07T10:21:14.934Z,7.50
2019-06-07T10:23:42.524Z,6.67
2019-06-07T10:26:11.508Z,5.17
2019-06-07T10:28:40.557Z,5.03
2019-06-07T10:31:11.342Z,6.57
2019-06-07T10:33:40.200Z,6.87
2019-06-07T10:36:09.242Z,7.00
2019-06-07T10:38:38.082Z,7.10
2019-06-07T10:41:07.015Z,5.43
2019-06-07T10:43:35.923Z,6.57
2019-06-07T10:46:05.726Z,7.97
2019-06-07T10:48:34.969Z,6.83
2019-06-07T10:51:04.260Z,7.43
2019-06-07T10:53:33.579Z,7.60
2019-06-07T10:56:02.884Z,7.53
2019-06-07T10:58:32.140Z,7.60
2019-06-07T11:01:01.221Z,7.77
2019-06-07T11:03:30.175Z,7.40
2019-06-07T11:05:59.042Z,7.77
2019-06-07T11:08:27.975Z,6.00
2019-06-07T11:10:56.930Z,7.07
2019-06-07T11:13:25.857Z,8.20
2019-06-07T11:15:54.837Z,7.27
2019-06-07T11:18:23.786Z,6.30
2019-06-07T11:20:52.743Z,5.70
2019-06-07T11:23:21.744Z,7.80
2019-06-07T11:25:50.660Z,7.13
2019-06-07T11:28:19.664Z,7.93
2019-06-07T11:30:48.615Z,7.40
2019-06-07T11:33:18.773Z,6.77
2019-06-07T11:35:47.865Z,5.67
2019-06-07T11:38:16.849Z,6.90
2019-06-07T11:40:46.063Z,5.07
2019-06-07T11:43:15.134Z,4.77
2019-06-07T11:45:44.210Z,6.63
2019-06-07T11:48:13.519Z,6.43
2019-06-07T11:50:42.579Z,6.87
2019-06-07T11:53:12.677Z,6.30
2019-06-07T11:55:42.004Z,5.77
2019-06-07T11:58:15.107Z,7.50
2019-06-07T12:00:41.707Z,4.80
2019-06-07T12:03:11.558Z,7.50
2019-06-07T12:05:40.778Z,6.07
2019-06-07T12:08:10.017Z,5.63
2019-06-07T12:10:42.546Z,6.20
2019-06-07T12:13:10.433Z,5.37
2019-06-07T12:15:39.482Z,6.73
2019-06-07T12:18:09.212Z,6.37
2019-06-07T12:20:38.320Z,5.87
2019-06-07T12:23:07.301Z,7.20
2019-06-07T12:25:36.317Z,6.60
2019-06-07T12:28:05.327Z,6.60
2019-06-07T12:30:34.317Z,6.20
2019-06-07T12:33:03.251Z,4.43
2019-06-07T12:35:32.203Z,4.87
2019-06-07T12:38:01.292Z,7.63
2019-06-07T12:40:32.406Z,7.57
2019-06-07T12:43:00.977Z,6.30
2019-06-07T12:45:44.238Z,6.20
2019-06-07T12:48:00.678Z,5.87
2019-06-07T12:50:42.755Z,7.80
2019-06-07T12:53:00.455Z,7.17
2019-06-07T12:55:29.402Z,3.17
2019-06-07T12:57:58.327Z,6.00
2019-06-07T13:00:28.031Z,5.50
2019-06-07T13:02:57.082Z,5.77
2019-06-07T13:05:25.990Z,3.57
2019-06-07T13:07:54.948Z,4.07
2019-06-07T13:10:24.134Z,6.67
2019-06-07T13:12:53.154Z,6.80
2019-06-07T13:15:25.397Z,6.17
2019-06-07T13:17:53.281Z,7.10
2019-06-07T13:20:22.754Z,6.27
2019-06-07T13:22:51.970Z,5.40
2019-06-07T13:25:23.914Z,6.00
2019-06-07T13:27:52.685Z,5.00
2019-06-07T13:30:23.530Z,5.70
2019-06-07T13:32:52.617Z,6.00
2019-06-07T13:35:23.345Z,6.10
2019-06-07T13:37:52.336Z,6.23
2019-06-07T13:40:22.990Z,5.00
2019-06-07T13:42:52.052Z,4.97
2019-06-07T13:45:22.279Z,4.93
2019-06-07T13:47:51.891Z,5.23
2019-06-07T13:50:21.667Z,5.60
2019-06-07T13:52:51.040Z,5.70
2019-06-07T13:55:20.159Z,4.80
2019-06-07T13:57:49.161Z,5.83
2019-06-07T14:00:19.011Z,5.80
2019-06-07T14:02:48.886Z,5.50
2019-06-07T14:05:18.777Z,5.50
2019-06-07T14:07:47.854Z,6.50
2019-06-07T14:10:16.877Z,5.80
2019-06-07T14:12:45.697Z,5.37
2019-06-07T14:15:15.277Z,5.03
2019-06-07T14:17:44.214Z,4.50
2019-06-07T14:20:13.779Z,4.50
2019-06-07T14:22:43.327Z,4.57
2019-06-07T14:25:12.338Z,3.70
2019-06-07T14:27:41.208Z,3.30
2019-06-07T14:30:11.085Z,2.83
2019-06-07T14:32:40.154Z,2.50
2019-06-07T14:35:09.806Z,2.07
2019-06-07T14:37:38.824Z,2.07
2019-06-07T14:40:08.631Z,2.60
2019-06-07T14:42:37.767Z,2.40
2019-06-07T14:45:07.527Z,2.77
2019-06-07T14:47:36.556Z,2.20
2019-06-07T14:50:07.774Z,2.47
2019-06-07T14:52:36.770Z,2.27
2019-06-07T14:55:06.430Z,2.60
2019-06-07T14:57:35.527Z,2.57
2019-06-07T15:00:11.520Z,2.27
2019-06-07T15:02:38.392Z,1.80
2019-06-07T15:05:08.443Z,2.10
2019-06-07T15:07:39.900Z,2.53
2019-06-07T15:10:11.016Z,2.27
2019-06-07T15:12:40.303Z,2.47
2019-06-07T15:15:10.148Z,1.87
2019-06-07T15:17:39.346Z,1.53
2019-06-07T15:20:09.009Z,1.90
2019-06-07T15:22:38.734Z,2.13
2019-06-07T15:25:08.555Z,1.80
2019-06-07T15:27:37.878Z,1.37
2019-06-07T15:30:10.495Z,1.10
2019-06-07T15:32:39.450Z,1.47
2019-06-07T15:35:09.882Z,1.57
2019-06-07T15:37:39.408Z,1.17
2019-06-07T15:40:10.599Z,1.40
2019-06-07T15:42:51.505Z,1.27
2019-06-07T15:45:11.045Z,1.13
2019-06-07T15:47:40.638Z,1.30
2019-06-07T15:50:11.088Z,1.37
2019-06-07T15:52:41.247Z,1.17
2019-06-07T15:55:12.302Z,1.97
2019-06-07T15:57:42.130Z,1.03
2019-06-07T16:00:12.750Z,1.10
2019-06-07T16:02:41.919Z,1.30
2019-06-07T16:05:13.166Z,1.10
2019-06-07T16:07:42.811Z,1.30
2019-06-07T16:10:13.004Z,1.50
2019-06-07T16:12:58.598Z,1.30
2019-06-07T16:15:13.374Z,1.30
2019-06-07T16:17:43.882Z,1.10
2019-06-07T16:20:13.576Z,1.50
2019-06-07T16:22:43.832Z,1.40
2019-06-07T16:25:13.558Z,1.43
2019-06-07T16:27:42.762Z,1.30
2019-06-07T16:30:13.047Z,1.23
2019-06-07T16:32:43.978Z,1.23
2019-06-07T16:35:15.174Z,1.23
2019-06-07T16:37:45.847Z,1.40
2019-06-07T16:40:15.860Z,1.50
2019-06-07T16:42:45.186Z,1.30
2019-06-07T16:45:17.075Z,1.10
2019-06-07T16:47:47.693Z,1.13
2019-06-07T16:50:16.672Z,1.30
2019-06-07T16:52:46.559Z,1.50
2019-06-07T16:55:16.459Z,1.40
2019-06-07T16:57:45.466Z,1.10
2019-06-07T17:00:14.933Z,1.43
2019-06-07T17:02:45.041Z,1.37
2019-06-07T17:05:14.937Z,1.40
2019-06-07T17:07:44.732Z,1.30
2019-06-07T17:10:15.121Z,1.47
2019-06-07T17:12:44.836Z,1.40
2019-06-07T17:15:15.677Z,1.50
2019-06-07T17:17:45.140Z,1.27
2019-06-07T17:20:16.047Z,1.30
2019-06-07T17:22:45.758Z,1.17
2019-06-07T17:25:16.646Z,1.07
2019-06-07T17:27:46.406Z,1.10
2019-06-07T17:30:16.812Z,1.03
2019-06-07T17:32:53.861Z,0.90
2019-06-07T17:35:17.891Z,1.00
2019-06-07T17:37:48.237Z,1.10
2019-06-07T17:40:17.863Z,0.87
2019-06-07T17:42:46.870Z,1.00
2019-06-07T17:45:17.392Z,0.90
2019-06-07T17:47:47.683Z,0.83
2019-06-07T17:50:17.536Z,0.80
2019-06-07T17:52:47.847Z,0.73
2019-06-07T17:55:18.315Z,0.90
2019-06-07T17:57:48.456Z,0.90
2019-06-07T18:00:28.884Z,0.90
2019-06-07T18:02:51.062Z,1.20
2019-06-07T18:05:20.177Z,0.93
2019-06-07T18:07:51.846Z,0.70
2019-06-07T18:10:33.994Z,0.87
2019-06-07T18:13:02.862Z,0.87
2019-06-07T18:15:40.507Z,0.70
2019-06-07T18:18:09.642Z,1.00
2019-06-07T18:20:40.570Z,0.90
2019-06-07T18:23:09.940Z,0.80
2019-06-07T18:25:39.033Z,0.70
2019-06-07T18:28:08.067Z,0.80
2019-06-07T18:30:38.051Z,0.83
2019-06-07T18:33:07.480Z,1.10
2019-06-07T18:35:36.336Z,0.93
2019-06-07T18:38:05.850Z,0.83
2019-06-07T18:40:34.817Z,0.90
2019-06-07T18:43:04.026Z,0.90
2019-06-07T18:45:32.886Z,0.90
2019-06-07T18:48:01.890Z,1.10
2019-06-07T18:50:30.763Z,1.00
2019-06-07T18:52:59.709Z,0.90
2019-06-07T18:55:28.731Z,0.93
2019-06-07T18:57:58.539Z,0.90
2019-06-07T19:00:28.467Z,0.90
2019-06-07T19:02:58.089Z,0.90
2019-06-07T19:05:27.588Z,0.97
2019-06-07T19:07:56.788Z,1.00
2019-06-07T19:10:27.256Z,1.00
2019-06-07T19:12:57.400Z,0.80
2019-06-07T19:15:27.214Z,0.70
2019-06-07T19:17:56.286Z,0.80
2019-06-07T19:20:26.260Z,1.00
2019-06-07T19:22:56.377Z,1.10
2019-06-07T19:25:25.788Z,1.00
2019-06-07T19:27:55.051Z,0.90
2019-06-07T19:30:24.443Z,0.80
2019-06-07T19:32:53.387Z,0.90
2019-06-07T19:35:22.430Z,0.97
2019-06-07T19:37:51.819Z,1.20
2019-06-07T19:40:21.518Z,0.90
2019-06-07T19:42:52.061Z,0.90
2019-06-07T19:45:30.909Z,1.10
2019-06-07T19:47:52.400Z,1.00
2019-06-07T19:50:22.165Z,0.77
2019-06-07T19:52:51.263Z,0.77
2019-06-07T19:55:20.449Z,1.00
2019-06-07T19:57:50.212Z,0.90
2019-06-07T20:00:20.010Z,0.80
2019-06-07T20:02:48.848Z,0.83
2019-06-07T20:05:17.950Z,0.90
2019-06-07T20:07:47.033Z,0.77
2019-06-07T20:10:16.395Z,0.80
2019-06-07T20:12:45.276Z,0.83
2019-06-07T20:15:27.765Z,0.83
2019-06-07T20:17:45.467Z,0.70
2019-06-07T20:20:14.402Z,1.07
2019-06-07T20:22:43.433Z,1.10
2019-06-07T20:25:12.778Z,0.97
2019-06-07T20:27:41.719Z,1.07
2019-06-07T20:30:11.756Z,0.77
2019-06-07T20:32:40.721Z,1.20
2019-06-07T20:35:09.949Z,0.90
2019-06-07T20:37:38.862Z,1.20
2019-06-07T20:40:22.096Z,1.07
2019-06-07T20:42:39.604Z,0.90
2019-06-07T20:45:09.226Z,1.00
2019-06-07T20:47:38.264Z,1.10
2019-06-07T20:50:08.755Z,0.87
2019-06-07T20:52:38.783Z,1.20
2019-06-07T20:55:09.363Z,0.87
2019-06-07T20:57:38.775Z,0.90
2019-06-07T21:00:15.975Z,1.23
2019-06-07T21:02:39.253Z,0.80
2019-06-07T21:05:09.860Z,0.83
2019-06-07T21:07:39.179Z,0.80
2019-06-07T21:10:08.991Z,1.00
2019-06-07T21:12:39.351Z,0.90
2019-06-07T21:15:12.898Z,1.00
2019-06-07T21:17:40.124Z,0.80
2019-06-07T21:20:13.834Z,0.90
2019-06-07T21:22:40.595Z,1.37
2019-06-07T21:25:11.551Z,0.90
2019-06-07T21:27:40.625Z,1.00
2019-06-07T21:30:11.549Z,1.17
2019-06-07T21:32:40.908Z,1.00
2019-06-07T21:35:10.417Z,1.00
2019-06-07T21:37:39.647Z,0.90
2019-06-07T21:40:10.364Z,1.17
2019-06-07T21:42:39.817Z,1.37
2019-06-07T21:45:11.783Z,0.83
2019-06-07T21:47:41.224Z,0.90
2019-06-07T21:50:11.059Z,0.97
2019-06-07T21:52:40.228Z,0.67
2019-06-07T21:55:11.498Z,1.10
2019-06-07T21:57:40.618Z,0.90
2019-06-07T22:00:14.899Z,0.83
2019-06-07T22:02:43.818Z,0.80
2019-06-07T22:05:13.871Z,0.77
2019-06-07T22:07:43.105Z,1.10
2019-06-07T22:10:12.717Z,1.23
2019-06-07T22:12:41.700Z,0.93
2019-06-07T22:15:30.355Z,0.80
2019-06-07T22:17:42.059Z,0.70
2019-06-07T22:20:12.823Z,0.60
2019-06-07T22:22:41.840Z,0.77
2019-06-07T22:25:13.020Z,0.70
2019-06-07T22:27:42.116Z,1.10
2019-06-07T22:30:12.486Z,0.70
2019-06-07T22:32:41.710Z,0.60
2019-06-07T22:35:10.955Z,0.90
2019-06-07T22:37:40.071Z,0.50
2019-06-07T22:40:10.567Z,0.70
2019-06-07T22:42:39.622Z,0.60
2019-06-07T22:45:10.615Z,0.80
2019-06-07T22:47:39.378Z,0.73
2019-06-07T22:50:10.911Z,0.80
2019-06-07T22:52:40.569Z,0.80
2019-06-07T22:55:10.696Z,0.70
2019-06-07T22:57:58.053Z,0.70
2019-06-07T23:00:29.110Z,0.70
2019-06-07T23:02:58.050Z,1.00
2019-06-07T23:05:27.065Z,0.70
2019-06-07T23:07:56.063Z,0.70
2019-06-07T23:10:25.125Z,1.00
2019-06-07T23:12:54.050Z,0.80
2019-06-07T23:15:23.102Z,0.90
2019-06-07T23:17:52.032Z,0.80
2019-06-07T23:20:21.291Z,0.70
2019-06-07T23:22:50.234Z,0.70
2019-06-07T23:25:22.986Z,0.70
2019-06-07T23:27:49.899Z,0.90
2019-06-07T23:30:21.595Z,0.70
2019-06-07T23:32:51.031Z,0.90
2019-06-07T23:35:21.135Z,1.20
2019-06-07T23:37:50.253Z,0.97
2019-06-07T23:40:19.886Z,1.00
2019-06-07T23:42:48.798Z,0.90
2019-06-07T23:45:17.790Z,1.50
2019-06-07T23:47:46.713Z,1.00
2019-06-07T23:50:16.104Z,1.00
2019-06-07T23:52:45.051Z,0.90
2019-06-07T23:55:14.356Z,0.87
2019-06-07T23:57:43.342Z,0.87
